sensor_id;sensor_type;location;lat;lon;timestamp;temperature;humidity
74513;DHT22;62992;52.052;8.550;2023-06-24T00:01:33;15.40;99.90
74513;DHT22;62992;52.052;8.550;2023-06-24T00:04:17;15.30;99.90
74513;DHT22;62992;52.052;8.550;2023-06-24T00:07:02;15.30;99.90
74513;DHT22;62992;52.052;8.550;2023-06-24T00:09:47;15.30;99.90
74513;DHT22;62992;52.052;8.550;2023-06-24T00:12:31;15.30;99.90
74513;DHT22;62992;52.052;8.550;2023-06-24T00:15:16;15.20;99.90
74513;DHT22;62992;52.052;8.550;2023-06-24T00:18:02;15.20;99.90
74513;DHT22;62992;52.052;8.550;2023-06-24T00:20:49;15.20;99.90
74513;DHT22;62992;52.052;8.550;2023-06-24T00:23:33;15.20;99.90
74513;DHT22;62992;52.052;8.550;2023-06-24T00:26:20;15.20;99.90
74513;DHT22;62992;52.052;8.550;2023-06-24T00:29:04;15.10;99.90
74513;DHT22;62992;52.052;8.550;2023-06-24T00:31:49;15.10;99.90
74513;DHT22;62992;52.052;8.550;2023-06-24T00:34:33;15.10;99.90
74513;DHT22;62992;52.052;8.550;2023-06-24T00:37:18;15.00;99.90
74513;DHT22;62992;52.052;8.550;2023-06-24T00:40:02;15.00;99.90
74513;DHT22;62992;52.052;8.550;2023-06-24T00:42:47;15.00;99.90
74513;DHT22;62992;52.052;8.550;2023-06-24T00:45:31;15.00;99.90
74513;DHT22;62992;52.052;8.550;2023-06-24T00:48:16;15.10;99.90
74513;DHT22;62992;52.052;8.550;2023-06-24T00:51:00;15.00;99.90
74513;DHT22;62992;52.052;8.550;2023-06-24T00:53:44;14.90;99.90
74513;DHT22;62992;52.052;8.550;2023-06-24T00:56:33;14.90;99.90
74513;DHT22;62992;52.052;8.550;2023-06-24T00:59:18;14.90;99.90
74513;DHT22;62992;52.052;8.550;2023-06-24T01:02:02;14.90;99.90
74513;DHT22;62992;52.052;8.550;2023-06-24T01:04:48;15.00;99.90
74513;DHT22;62992;52.052;8.550;2023-06-24T01:07:32;14.90;99.90
74513;DHT22;62992;52.052;8.550;2023-06-24T01:10:17;14.80;99.90
74513;DHT22;62992;52.052;8.550;2023-06-24T01:13:01;14.80;99.90
74513;DHT22;62992;52.052;8.550;2023-06-24T01:15:46;14.70;99.90
74513;DHT22;62992;52.052;8.550;2023-06-24T01:18:35;14.70;99.90
74513;DHT22;62992;52.052;8.550;2023-06-24T01:27:19;14.70;99.90
74513;DHT22;62992;52.052;8.550;2023-06-24T01:33:14;14.50;99.90
74513;DHT22;62992;52.052;8.550;2023-06-24T01:36:00;14.60;99.90
74513;DHT22;62992;52.052;8.550;2023-06-24T01:38:51;14.60;99.90
74513;DHT22;62992;52.052;8.550;2023-06-24T01:41:43;14.70;99.90
74513;DHT22;62992;52.052;8.550;2023-06-24T01:44:27;14.60;99.90
74513;DHT22;62992;52.052;8.550;2023-06-24T01:47:12;14.50;99.90
74513;DHT22;62992;52.052;8.550;2023-06-24T01:49:59;14.50;99.90
74513;DHT22;62992;52.052;8.550;2023-06-24T01:52:45;14.40;99.90
74513;DHT22;62992;52.052;8.550;2023-06-24T01:55:29;14.40;99.90
74513;DHT22;62992;52.052;8.550;2023-06-24T01:58:15;14.40;99.90
74513;DHT22;62992;52.052;8.550;2023-06-24T02:01:01;14.40;99.90
74513;DHT22;62992;52.052;8.550;2023-06-24T02:03:46;14.40;99.90
74513;DHT22;62992;52.052;8.550;2023-06-24T02:06:30;14.30;99.90
74513;DHT22;62992;52.052;8.550;2023-06-24T02:09:15;14.40;99.90
74513;DHT22;62992;52.052;8.550;2023-06-24T02:12:01;14.30;99.90
74513;DHT22;62992;52.052;8.550;2023-06-24T02:14:45;14.30;99.90
74513;DHT22;62992;52.052;8.550;2023-06-24T02:17:31;14.20;99.90
74513;DHT22;62992;52.052;8.550;2023-06-24T02:20:15;14.30;99.90
74513;DHT22;62992;52.052;8.550;2023-06-24T02:23:00;14.20;99.90
74513;DHT22;62992;52.052;8.550;2023-06-24T02:25:44;14.20;99.90
74513;DHT22;62992;52.052;8.550;2023-06-24T02:28:28;14.10;99.90
74513;DHT22;62992;52.052;8.550;2023-06-24T02:31:13;14.10;99.90
74513;DHT22;62992;52.052;8.550;2023-06-24T02:33:58;14.10;99.90
74513;DHT22;62992;52.052;8.550;2023-06-24T02:36:42;14.10;99.90
74513;DHT22;62992;52.052;8.550;2023-06-24T02:39:26;14.10;99.90
74513;DHT22;62992;52.052;8.550;2023-06-24T02:42:10;14.10;99.90
74513;DHT22;62992;52.052;8.550;2023-06-24T02:44:55;14.10;99.90
74513;DHT22;62992;52.052;8.550;2023-06-24T02:47:40;14.10;99.90
74513;DHT22;62992;52.052;8.550;2023-06-24T02:50:25;14.00;99.90
74513;DHT22;62992;52.052;8.550;2023-06-24T02:53:12;14.00;99.90
74513;DHT22;62992;52.052;8.550;2023-06-24T02:55:58;14.00;99.90
74513;DHT22;62992;52.052;8.550;2023-06-24T02:58:42;13.90;99.90
74513;DHT22;62992;52.052;8.550;2023-06-24T03:01:27;13.90;99.90
74513;DHT22;62992;52.052;8.550;2023-06-24T03:04:11;13.90;99.90
74513;DHT22;62992;52.052;8.550;2023-06-24T03:06:56;13.90;99.90
74513;DHT22;62992;52.052;8.550;2023-06-24T03:09:40;13.80;99.90
74513;DHT22;62992;52.052;8.550;2023-06-24T03:12:24;13.80;99.90
74513;DHT22;62992;52.052;8.550;2023-06-24T03:15:08;13.80;99.90
74513;DHT22;62992;52.052;8.550;2023-06-24T03:17:53;13.80;99.90
74513;DHT22;62992;52.052;8.550;2023-06-24T03:20:37;13.80;99.90
74513;DHT22;62992;52.052;8.550;2023-06-24T03:23:25;13.80;99.90
74513;DHT22;62992;52.052;8.550;2023-06-24T03:26:09;13.80;99.90
74513;DHT22;62992;52.052;8.550;2023-06-24T03:28:53;13.80;99.90
74513;DHT22;62992;52.052;8.550;2023-06-24T03:31:37;13.80;99.90
74513;DHT22;62992;52.052;8.550;2023-06-24T03:34:21;13.80;99.90
74513;DHT22;62992;52.052;8.550;2023-06-24T03:37:06;13.80;99.90
74513;DHT22;62992;52.052;8.550;2023-06-24T03:39:50;13.80;99.90
74513;DHT22;62992;52.052;8.550;2023-06-24T03:42:34;13.90;99.90
74513;DHT22;62992;52.052;8.550;2023-06-24T03:45:18;13.90;99.90
74513;DHT22;62992;52.052;8.550;2023-06-24T03:48:03;13.90;99.90
74513;DHT22;62992;52.052;8.550;2023-06-24T03:50:47;13.90;99.90
74513;DHT22;62992;52.052;8.550;2023-06-24T03:53:31;13.90;99.90
74513;DHT22;62992;52.052;8.550;2023-06-24T03:56:16;13.90;99.90
74513;DHT22;62992;52.052;8.550;2023-06-24T03:59:00;14.00;99.90
74513;DHT22;62992;52.052;8.550;2023-06-24T04:01:44;14.00;99.90
74513;DHT22;62992;52.052;8.550;2023-06-24T04:04:29;14.00;99.90
74513;DHT22;62992;52.052;8.550;2023-06-24T04:07:13;14.00;99.90
74513;DHT22;62992;52.052;8.550;2023-06-24T04:09:57;14.10;99.90
74513;DHT22;62992;52.052;8.550;2023-06-24T04:12:41;14.10;99.90
74513;DHT22;62992;52.052;8.550;2023-06-24T04:15:26;14.20;99.90
74513;DHT22;62992;52.052;8.550;2023-06-24T04:18:10;14.20;99.90
74513;DHT22;62992;52.052;8.550;2023-06-24T04:20:54;14.20;99.90
74513;DHT22;62992;52.052;8.550;2023-06-24T04:23:38;14.30;99.90
74513;DHT22;62992;52.052;8.550;2023-06-24T04:26:22;14.30;99.90
74513;DHT22;62992;52.052;8.550;2023-06-24T04:29:06;14.30;99.90
74513;DHT22;62992;52.052;8.550;2023-06-24T04:31:50;14.40;99.90
74513;DHT22;62992;52.052;8.550;2023-06-24T04:34:35;14.40;99.90
74513;DHT22;62992;52.052;8.550;2023-06-24T04:37:19;14.50;99.90
74513;DHT22;62992;52.052;8.550;2023-06-24T04:40:03;14.60;99.90
74513;DHT22;62992;52.052;8.550;2023-06-24T04:42:47;14.70;99.90
74513;DHT22;62992;52.052;8.550;2023-06-24T04:45:31;14.60;99.90
74513;DHT22;62992;52.052;8.550;2023-06-24T04:48:15;14.70;99.90
74513;DHT22;62992;52.052;8.550;2023-06-24T04:50:59;14.80;99.90
74513;DHT22;62992;52.052;8.550;2023-06-24T04:53:44;14.90;99.90
74513;DHT22;62992;52.052;8.550;2023-06-24T04:56:28;14.80;99.90
74513;DHT22;62992;52.052;8.550;2023-06-24T04:59:12;14.90;99.90
74513;DHT22;62992;52.052;8.550;2023-06-24T05:01:56;15.00;99.90
74513;DHT22;62992;52.052;8.550;2023-06-24T05:04:41;15.20;99.90
74513;DHT22;62992;52.052;8.550;2023-06-24T05:07:25;15.30;99.90
74513;DHT22;62992;52.052;8.550;2023-06-24T05:10:09;15.40;99.90
74513;DHT22;62992;52.052;8.550;2023-06-24T05:12:53;15.50;99.90
74513;DHT22;62992;52.052;8.550;2023-06-24T05:15:37;15.60;99.90
74513;DHT22;62992;52.052;8.550;2023-06-24T05:18:22;15.70;99.90
74513;DHT22;62992;52.052;8.550;2023-06-24T05:21:06;15.90;99.90
74513;DHT22;62992;52.052;8.550;2023-06-24T05:23:51;16.10;99.90
74513;DHT22;62992;52.052;8.550;2023-06-24T05:26:35;16.40;99.90
74513;DHT22;62992;52.052;8.550;2023-06-24T05:29:19;16.60;99.90
74513;DHT22;62992;52.052;8.550;2023-06-24T05:32:03;16.80;99.90
74513;DHT22;62992;52.052;8.550;2023-06-24T05:34:47;17.10;99.90
74513;DHT22;62992;52.052;8.550;2023-06-24T05:37:31;17.20;99.90
74513;DHT22;62992;52.052;8.550;2023-06-24T05:40:16;17.40;99.90
74513;DHT22;62992;52.052;8.550;2023-06-24T05:43:00;17.60;99.90
74513;DHT22;62992;52.052;8.550;2023-06-24T05:45:44;17.80;99.90
74513;DHT22;62992;52.052;8.550;2023-06-24T05:48:29;18.00;99.90
74513;DHT22;62992;52.052;8.550;2023-06-24T05:51:13;18.30;99.90
74513;DHT22;62992;52.052;8.550;2023-06-24T05:53:57;18.60;99.90
74513;DHT22;62992;52.052;8.550;2023-06-24T05:56:41;19.00;99.90
74513;DHT22;62992;52.052;8.550;2023-06-24T05:59:25;19.20;99.90
74513;DHT22;62992;52.052;8.550;2023-06-24T06:02:09;19.60;99.90
74513;DHT22;62992;52.052;8.550;2023-06-24T06:04:54;19.80;99.90
74513;DHT22;62992;52.052;8.550;2023-06-24T06:07:38;19.90;99.90
74513;DHT22;62992;52.052;8.550;2023-06-24T06:10:23;20.00;99.90
74513;DHT22;62992;52.052;8.550;2023-06-24T06:13:07;20.20;99.90
74513;DHT22;62992;52.052;8.550;2023-06-24T06:15:52;20.80;99.90
74513;DHT22;62992;52.052;8.550;2023-06-24T06:18:36;21.20;99.90
74513;DHT22;62992;52.052;8.550;2023-06-24T06:21:21;21.60;99.90
74513;DHT22;62992;52.052;8.550;2023-06-24T06:24:05;21.70;99.90
74513;DHT22;62992;52.052;8.550;2023-06-24T06:26:49;22.30;99.90
74513;DHT22;62992;52.052;8.550;2023-06-24T06:29:33;22.40;99.90
74513;DHT22;62992;52.052;8.550;2023-06-24T06:32:18;23.40;99.90
74513;DHT22;62992;52.052;8.550;2023-06-24T06:35:02;23.70;99.90
74513;DHT22;62992;52.052;8.550;2023-06-24T06:37:46;23.90;99.90
74513;DHT22;62992;52.052;8.550;2023-06-24T06:40:36;24.50;99.90
74513;DHT22;62992;52.052;8.550;2023-06-24T06:43:20;23.90;99.90
74513;DHT22;62992;52.052;8.550;2023-06-24T06:46:05;24.00;99.90
74513;DHT22;62992;52.052;8.550;2023-06-24T06:48:49;24.70;99.90
74513;DHT22;62992;52.052;8.550;2023-06-24T06:51:33;25.10;99.90
74513;DHT22;62992;52.052;8.550;2023-06-24T06:54:19;25.10;99.90
74513;DHT22;62992;52.052;8.550;2023-06-24T06:57:03;25.10;99.90
74513;DHT22;62992;52.052;8.550;2023-06-24T06:59:48;25.40;99.90
74513;DHT22;62992;52.052;8.550;2023-06-24T07:02:34;25.20;99.90
74513;DHT22;62992;52.052;8.550;2023-06-24T07:05:19;25.40;99.90
74513;DHT22;62992;52.052;8.550;2023-06-24T07:08:05;25.80;99.90
74513;DHT22;62992;52.052;8.550;2023-06-24T07:10:49;25.70;99.90
74513;DHT22;62992;52.052;8.550;2023-06-24T07:13:33;25.50;99.90
74513;DHT22;62992;52.052;8.550;2023-06-24T07:16:17;25.70;99.90
74513;DHT22;62992;52.052;8.550;2023-06-24T07:19:02;25.60;99.90
74513;DHT22;62992;52.052;8.550;2023-06-24T07:21:46;26.10;99.90
74513;DHT22;62992;52.052;8.550;2023-06-24T07:24:30;25.60;99.90
74513;DHT22;62992;52.052;8.550;2023-06-24T07:27:14;26.00;99.90
74513;DHT22;62992;52.052;8.550;2023-06-24T07:29:59;26.20;99.90
74513;DHT22;62992;52.052;8.550;2023-06-24T07:32:43;26.20;99.90
74513;DHT22;62992;52.052;8.550;2023-06-24T07:35:27;26.50;99.90
74513;DHT22;62992;52.052;8.550;2023-06-24T07:38:11;26.20;99.90
74513;DHT22;62992;52.052;8.550;2023-06-24T07:40:56;26.60;99.90
74513;DHT22;62992;52.052;8.550;2023-06-24T07:43:40;26.50;99.90
74513;DHT22;62992;52.052;8.550;2023-06-24T07:46:24;26.50;99.90
74513;DHT22;62992;52.052;8.550;2023-06-24T07:49:11;26.30;99.90
74513;DHT22;62992;52.052;8.550;2023-06-24T07:51:55;26.40;99.90
74513;DHT22;62992;52.052;8.550;2023-06-24T07:54:39;26.70;99.90
74513;DHT22;62992;52.052;8.550;2023-06-24T07:57:23;27.10;99.80
74513;DHT22;62992;52.052;8.550;2023-06-24T08:00:08;27.50;99.90
74513;DHT22;62992;52.052;8.550;2023-06-24T08:02:55;27.20;99.40
74513;DHT22;62992;52.052;8.550;2023-06-24T08:05:39;27.40;99.90
74513;DHT22;62992;52.052;8.550;2023-06-24T08:08:23;27.90;99.90
74513;DHT22;62992;52.052;8.550;2023-06-24T08:11:07;27.30;99.90
74513;DHT22;62992;52.052;8.550;2023-06-24T08:13:52;26.90;99.90
74513;DHT22;62992;52.052;8.550;2023-06-24T08:16:36;27.30;99.90
74513;DHT22;62992;52.052;8.550;2023-06-24T08:19:21;27.20;99.90
74513;DHT22;62992;52.052;8.550;2023-06-24T08:22:05;26.80;99.90
74513;DHT22;62992;52.052;8.550;2023-06-24T08:24:49;26.60;99.90
74513;DHT22;62992;52.052;8.550;2023-06-24T08:27:33;25.50;99.90
74513;DHT22;62992;52.052;8.550;2023-06-24T08:30:17;26.50;99.90
74513;DHT22;62992;52.052;8.550;2023-06-24T08:33:02;27.20;99.90
74513;DHT22;62992;52.052;8.550;2023-06-24T08:35:46;27.80;99.90
74513;DHT22;62992;52.052;8.550;2023-06-24T08:38:30;27.70;99.90
74513;DHT22;62992;52.052;8.550;2023-06-24T08:41:14;28.10;99.90
74513;DHT22;62992;52.052;8.550;2023-06-24T08:43:59;28.10;99.90
74513;DHT22;62992;52.052;8.550;2023-06-24T08:46:43;28.20;99.90
74513;DHT22;62992;52.052;8.550;2023-06-24T08:49:28;28.00;97.50
74513;DHT22;62992;52.052;8.550;2023-06-24T08:52:14;27.70;99.90
74513;DHT22;62992;52.052;8.550;2023-06-24T08:55:00;27.90;99.90
74513;DHT22;62992;52.052;8.550;2023-06-24T08:57:45;27.90;99.90
74513;DHT22;62992;52.052;8.550;2023-06-24T09:00:29;27.80;99.90
74513;DHT22;62992;52.052;8.550;2023-06-24T09:03:14;27.60;99.90
74513;DHT22;62992;52.052;8.550;2023-06-24T09:05:58;27.50;99.60
74513;DHT22;62992;52.052;8.550;2023-06-24T09:08:51;27.30;99.00
74513;DHT22;62992;52.052;8.550;2023-06-24T09:11:35;27.40;98.40
74513;DHT22;62992;52.052;8.550;2023-06-24T09:14:20;27.40;99.90
74513;DHT22;62992;52.052;8.550;2023-06-24T09:17:04;27.30;99.40
74513;DHT22;62992;52.052;8.550;2023-06-24T09:19:49;27.30;99.90
74513;DHT22;62992;52.052;8.550;2023-06-24T09:22:33;27.40;99.90
74513;DHT22;62992;52.052;8.550;2023-06-24T09:25:17;27.10;99.90
74513;DHT22;62992;52.052;8.550;2023-06-24T09:28:02;27.20;99.90
74513;DHT22;62992;52.052;8.550;2023-06-24T09:30:46;27.40;99.90
74513;DHT22;62992;52.052;8.550;2023-06-24T09:33:31;27.10;99.90
74513;DHT22;62992;52.052;8.550;2023-06-24T09:36:15;27.40;99.90
74513;DHT22;62992;52.052;8.550;2023-06-24T09:39:05;27.00;99.70
74513;DHT22;62992;52.052;8.550;2023-06-24T09:41:49;27.10;99.00
74513;DHT22;62992;52.052;8.550;2023-06-24T09:44:34;27.10;99.90
74513;DHT22;62992;52.052;8.550;2023-06-24T09:47:18;27.40;99.90
74513;DHT22;62992;52.052;8.550;2023-06-24T09:50:02;27.70;99.90
74513;DHT22;62992;52.052;8.550;2023-06-24T09:52:48;27.70;99.90
74513;DHT22;62992;52.052;8.550;2023-06-24T09:55:32;28.00;99.90
74513;DHT22;62992;52.052;8.550;2023-06-24T09:58:16;27.60;98.40
74513;DHT22;62992;52.052;8.550;2023-06-24T10:01:02;27.70;99.90
74513;DHT22;62992;52.052;8.550;2023-06-24T10:03:46;27.40;97.90
74513;DHT22;62992;52.052;8.550;2023-06-24T10:06:31;27.50;99.90
74513;DHT22;62992;52.052;8.550;2023-06-24T10:09:15;27.50;99.90
74513;DHT22;62992;52.052;8.550;2023-06-24T10:12:01;27.30;99.90
74513;DHT22;62992;52.052;8.550;2023-06-24T10:14:46;27.40;99.90
74513;DHT22;62992;52.052;8.550;2023-06-24T10:17:30;27.80;99.90
74513;DHT22;62992;52.052;8.550;2023-06-24T10:20:23;27.80;99.90
74513;DHT22;62992;52.052;8.550;2023-06-24T10:23:07;28.00;99.90
74513;DHT22;62992;52.052;8.550;2023-06-24T10:25:51;27.20;99.90
74513;DHT22;62992;52.052;8.550;2023-06-24T10:37:25;28.20;99.90
74513;DHT22;62992;52.052;8.550;2023-06-24T10:40:09;27.60;98.80
74513;DHT22;62992;52.052;8.550;2023-06-24T10:42:53;27.60;99.90
74513;DHT22;62992;52.052;8.550;2023-06-24T10:45:38;27.80;99.90
74513;DHT22;62992;52.052;8.550;2023-06-24T10:48:32;27.90;99.90
74513;DHT22;62992;52.052;8.550;2023-06-24T10:51:16;26.70;99.90
74513;DHT22;62992;52.052;8.550;2023-06-24T10:54:00;26.40;99.90
74513;DHT22;62992;52.052;8.550;2023-06-24T10:56:44;26.50;99.90
74513;DHT22;62992;52.052;8.550;2023-06-24T10:59:33;25.80;99.90
74513;DHT22;62992;52.052;8.550;2023-06-24T11:02:18;25.80;99.90
74513;DHT22;62992;52.052;8.550;2023-06-24T11:05:03;26.90;99.90
74513;DHT22;62992;52.052;8.550;2023-06-24T11:07:47;27.40;99.90
74513;DHT22;62992;52.052;8.550;2023-06-24T11:10:31;27.60;99.90
74513;DHT22;62992;52.052;8.550;2023-06-24T11:13:16;27.40;99.90
74513;DHT22;62992;52.052;8.550;2023-06-24T11:16:03;26.60;99.90
74513;DHT22;62992;52.052;8.550;2023-06-24T11:18:48;26.80;99.90
74513;DHT22;62992;52.052;8.550;2023-06-24T11:21:32;27.40;99.90
74513;DHT22;62992;52.052;8.550;2023-06-24T11:24:19;27.50;99.70
74513;DHT22;62992;52.052;8.550;2023-06-24T11:27:07;27.20;99.90
74513;DHT22;62992;52.052;8.550;2023-06-24T11:29:55;27.20;99.70
74513;DHT22;62992;52.052;8.550;2023-06-24T11:32:48;27.80;99.90
74513;DHT22;62992;52.052;8.550;2023-06-24T11:35:34;28.00;99.90
74513;DHT22;62992;52.052;8.550;2023-06-24T11:38:22;27.60;98.00
74513;DHT22;62992;52.052;8.550;2023-06-24T11:41:20;27.60;98.30
74513;DHT22;62992;52.052;8.550;2023-06-24T11:44:05;28.10;99.30
74513;DHT22;62992;52.052;8.550;2023-06-24T11:46:51;28.60;99.90
74513;DHT22;62992;52.052;8.550;2023-06-24T11:49:55;28.00;98.50
74513;DHT22;62992;52.052;8.550;2023-06-24T11:52:48;27.40;99.90
74513;DHT22;62992;52.052;8.550;2023-06-24T11:55:37;28.00;99.90
74513;DHT22;62992;52.052;8.550;2023-06-24T11:58:24;28.40;99.90
74513;DHT22;62992;52.052;8.550;2023-06-24T12:01:11;28.60;98.90
74513;DHT22;62992;52.052;8.550;2023-06-24T12:04:01;27.40;98.30
74513;DHT22;62992;52.052;8.550;2023-06-24T12:06:53;26.90;99.90
74513;DHT22;62992;52.052;8.550;2023-06-24T12:09:37;26.40;99.90
74513;DHT22;62992;52.052;8.550;2023-06-24T12:12:22;27.10;99.90
74513;DHT22;62992;52.052;8.550;2023-06-24T12:15:06;27.20;99.80
74513;DHT22;62992;52.052;8.550;2023-06-24T12:17:50;27.90;99.30
74513;DHT22;62992;52.052;8.550;2023-06-24T12:20:35;27.80;97.50
74513;DHT22;62992;52.052;8.550;2023-06-24T12:23:20;27.70;96.30
74513;DHT22;62992;52.052;8.550;2023-06-24T12:26:04;27.70;99.10
74513;DHT22;62992;52.052;8.550;2023-06-24T12:28:48;28.20;98.30
74513;DHT22;62992;52.052;8.550;2023-06-24T12:31:32;28.20;97.30
74513;DHT22;62992;52.052;8.550;2023-06-24T12:34:17;28.10;97.50
74513;DHT22;62992;52.052;8.550;2023-06-24T12:37:01;28.00;99.90
74513;DHT22;62992;52.052;8.550;2023-06-24T12:39:45;27.90;99.30
74513;DHT22;62992;52.052;8.550;2023-06-24T12:42:29;27.20;97.00
74513;DHT22;62992;52.052;8.550;2023-06-24T12:45:14;27.30;99.90
74513;DHT22;62992;52.052;8.550;2023-06-24T12:47:58;27.40;99.40
74513;DHT22;62992;52.052;8.550;2023-06-24T12:50:44;27.30;99.90
74513;DHT22;62992;52.052;8.550;2023-06-24T12:53:33;27.10;98.30
74513;DHT22;62992;52.052;8.550;2023-06-24T12:56:21;27.20;99.90
74513;DHT22;62992;52.052;8.550;2023-06-24T12:59:07;26.80;99.90
74513;DHT22;62992;52.052;8.550;2023-06-24T13:01:51;26.30;99.60
74513;DHT22;62992;52.052;8.550;2023-06-24T13:04:36;26.10;99.90
74513;DHT22;62992;52.052;8.550;2023-06-24T13:07:20;26.80;99.90
74513;DHT22;62992;52.052;8.550;2023-06-24T13:10:04;27.20;99.00
74513;DHT22;62992;52.052;8.550;2023-06-24T13:12:50;27.20;98.70
74513;DHT22;62992;52.052;8.550;2023-06-24T13:15:34;26.80;99.10
74513;DHT22;62992;52.052;8.550;2023-06-24T13:18:18;26.50;99.90
74513;DHT22;62992;52.052;8.550;2023-06-24T13:21:03;26.90;99.90
74513;DHT22;62992;52.052;8.550;2023-06-24T13:23:48;27.00;98.80
74513;DHT22;62992;52.052;8.550;2023-06-24T13:26:32;27.40;99.90
74513;DHT22;62992;52.052;8.550;2023-06-24T13:29:16;27.30;98.60
74513;DHT22;62992;52.052;8.550;2023-06-24T13:32:00;27.20;99.70
74513;DHT22;62992;52.052;8.550;2023-06-24T13:34:45;27.30;99.90
74513;DHT22;62992;52.052;8.550;2023-06-24T13:37:29;27.50;99.10
74513;DHT22;62992;52.052;8.550;2023-06-24T13:40:14;27.40;97.70
74513;DHT22;62992;52.052;8.550;2023-06-24T13:42:58;27.40;99.10
74513;DHT22;62992;52.052;8.550;2023-06-24T13:45:42;27.50;99.90
74513;DHT22;62992;52.052;8.550;2023-06-24T13:48:26;27.40;99.50
74513;DHT22;62992;52.052;8.550;2023-06-24T13:51:11;27.40;97.30
74513;DHT22;62992;52.052;8.550;2023-06-24T13:53:55;27.40;98.20
74513;DHT22;62992;52.052;8.550;2023-06-24T13:56:39;27.30;98.30
74513;DHT22;62992;52.052;8.550;2023-06-24T13:59:23;27.10;96.40
74513;DHT22;62992;52.052;8.550;2023-06-24T14:02:07;27.20;99.40
74513;DHT22;62992;52.052;8.550;2023-06-24T14:04:53;27.40;99.10
74513;DHT22;62992;52.052;8.550;2023-06-24T14:07:37;27.00;98.00
74513;DHT22;62992;52.052;8.550;2023-06-24T14:10:21;26.70;98.80
74513;DHT22;62992;52.052;8.550;2023-06-24T14:13:05;26.70;98.50
74513;DHT22;62992;52.052;8.550;2023-06-24T14:15:49;26.90;98.30
74513;DHT22;62992;52.052;8.550;2023-06-24T14:18:33;26.80;99.50
74513;DHT22;62992;52.052;8.550;2023-06-24T14:21:18;27.00;99.40
74513;DHT22;62992;52.052;8.550;2023-06-24T14:24:03;26.80;99.90
74513;DHT22;62992;52.052;8.550;2023-06-24T14:26:47;26.90;99.50
74513;DHT22;62992;52.052;8.550;2023-06-24T14:29:32;26.70;99.90
74513;DHT22;62992;52.052;8.550;2023-06-24T14:32:17;26.70;99.90
74513;DHT22;62992;52.052;8.550;2023-06-24T14:35:01;26.50;99.90
74513;DHT22;62992;52.052;8.550;2023-06-24T14:37:45;26.40;99.90
74513;DHT22;62992;52.052;8.550;2023-06-24T14:40:29;26.40;99.90
74513;DHT22;62992;52.052;8.550;2023-06-24T14:43:13;26.70;99.90
74513;DHT22;62992;52.052;8.550;2023-06-24T14:45:57;26.60;99.90
74513;DHT22;62992;52.052;8.550;2023-06-24T14:48:42;26.60;99.90
74513;DHT22;62992;52.052;8.550;2023-06-24T14:51:26;26.30;99.90
74513;DHT22;62992;52.052;8.550;2023-06-24T14:54:10;26.50;99.90
74513;DHT22;62992;52.052;8.550;2023-06-24T14:56:54;26.60;99.90
74513;DHT22;62992;52.052;8.550;2023-06-24T14:59:38;26.80;99.90
74513;DHT22;62992;52.052;8.550;2023-06-24T15:02:22;26.70;99.90
74513;DHT22;62992;52.052;8.550;2023-06-24T15:05:08;26.40;99.20
74513;DHT22;62992;52.052;8.550;2023-06-24T15:07:52;26.20;99.90
74513;DHT22;62992;52.052;8.550;2023-06-24T15:10:37;25.90;99.90
74513;DHT22;62992;52.052;8.550;2023-06-24T15:13:21;25.90;99.90
74513;DHT22;62992;52.052;8.550;2023-06-24T15:16:05;25.70;99.90
74513;DHT22;62992;52.052;8.550;2023-06-24T15:18:49;25.60;99.90
74513;DHT22;62992;52.052;8.550;2023-06-24T15:21:33;25.50;99.90
74513;DHT22;62992;52.052;8.550;2023-06-24T15:24:18;25.40;99.90
74513;DHT22;62992;52.052;8.550;2023-06-24T15:27:02;25.40;99.90
74513;DHT22;62992;52.052;8.550;2023-06-24T15:29:46;25.10;99.90
74513;DHT22;62992;52.052;8.550;2023-06-24T15:32:30;25.10;99.90
74513;DHT22;62992;52.052;8.550;2023-06-24T15:35:14;25.20;99.90
74513;DHT22;62992;52.052;8.550;2023-06-24T15:37:59;25.40;99.90
74513;DHT22;62992;52.052;8.550;2023-06-24T15:40:43;25.70;99.90
74513;DHT22;62992;52.052;8.550;2023-06-24T15:43:27;25.70;99.90
74513;DHT22;62992;52.052;8.550;2023-06-24T15:46:11;25.50;99.90
74513;DHT22;62992;52.052;8.550;2023-06-24T15:48:56;25.50;99.90
74513;DHT22;62992;52.052;8.550;2023-06-24T15:51:40;25.70;99.90
74513;DHT22;62992;52.052;8.550;2023-06-24T15:54:24;25.60;99.90
74513;DHT22;62992;52.052;8.550;2023-06-24T15:57:08;25.60;99.90
74513;DHT22;62992;52.052;8.550;2023-06-24T15:59:52;25.40;99.90
74513;DHT22;62992;52.052;8.550;2023-06-24T16:02:37;25.40;99.90
74513;DHT22;62992;52.052;8.550;2023-06-24T16:05:21;25.30;99.90
74513;DHT22;62992;52.052;8.550;2023-06-24T16:08:05;25.20;99.90
74513;DHT22;62992;52.052;8.550;2023-06-24T16:10:49;25.20;99.90
74513;DHT22;62992;52.052;8.550;2023-06-24T16:13:33;25.30;99.90
74513;DHT22;62992;52.052;8.550;2023-06-24T16:16:18;25.40;99.90
74513;DHT22;62992;52.052;8.550;2023-06-24T16:19:02;25.50;99.90
74513;DHT22;62992;52.052;8.550;2023-06-24T16:21:46;25.50;99.90
74513;DHT22;62992;52.052;8.550;2023-06-24T16:24:30;25.60;99.90
74513;DHT22;62992;52.052;8.550;2023-06-24T16:27:15;25.50;99.90
74513;DHT22;62992;52.052;8.550;2023-06-24T16:29:59;25.40;99.90
74513;DHT22;62992;52.052;8.550;2023-06-24T16:32:43;25.30;99.90
74513;DHT22;62992;52.052;8.550;2023-06-24T16:35:27;25.30;99.90
74513;DHT22;62992;52.052;8.550;2023-06-24T16:38:11;25.30;99.90
74513;DHT22;62992;52.052;8.550;2023-06-24T16:40:55;25.30;99.90
74513;DHT22;62992;52.052;8.550;2023-06-24T16:43:39;25.30;99.90
74513;DHT22;62992;52.052;8.550;2023-06-24T16:46:23;25.20;99.90
74513;DHT22;62992;52.052;8.550;2023-06-24T16:49:09;25.20;99.90
74513;DHT22;62992;52.052;8.550;2023-06-24T16:51:54;25.20;99.90
74513;DHT22;62992;52.052;8.550;2023-06-24T16:54:38;25.20;99.90
74513;DHT22;62992;52.052;8.550;2023-06-24T16:57:22;25.10;99.90
74513;DHT22;62992;52.052;8.550;2023-06-24T17:00:07;25.10;99.90
74513;DHT22;62992;52.052;8.550;2023-06-24T17:02:51;25.10;99.90
74513;DHT22;62992;52.052;8.550;2023-06-24T17:05:35;25.00;99.90
74513;DHT22;62992;52.052;8.550;2023-06-24T17:08:21;25.00;99.90
74513;DHT22;62992;52.052;8.550;2023-06-24T17:11:06;24.90;99.90
74513;DHT22;62992;52.052;8.550;2023-06-24T17:13:50;24.80;99.90
74513;DHT22;62992;52.052;8.550;2023-06-24T17:16:34;24.80;99.90
74513;DHT22;62992;52.052;8.550;2023-06-24T17:19:18;24.90;99.90
74513;DHT22;62992;52.052;8.550;2023-06-24T17:22:02;24.90;99.90
74513;DHT22;62992;52.052;8.550;2023-06-24T17:24:46;25.00;99.90
74513;DHT22;62992;52.052;8.550;2023-06-24T17:27:30;24.90;99.90
74513;DHT22;62992;52.052;8.550;2023-06-24T17:30:16;24.90;99.90
74513;DHT22;62992;52.052;8.550;2023-06-24T17:33:00;24.90;99.90
74513;DHT22;62992;52.052;8.550;2023-06-24T17:35:44;24.80;99.90
74513;DHT22;62992;52.052;8.550;2023-06-24T17:38:29;24.80;99.90